Abram, Texas
Current Conditions -  °F | °C
As of 2:44 AM on Sunday 23 Nov 2014 (Local Time) from KMFE Reporting Station
Haze Haze  
Wind Chill: 63°   Ceiling: 300
Heat Index: 63°   Visibility: 3mi
Dew Point: 62°   Wind: 3mph
Humidity: 97%   Direction: 360°N
Pressure: 29.79"   Gusts: NA
Location:  26.2167°N, 98.325°W
Report Text: KMFE 230844Z AUTO 36003KT 3SM BR OVC003 17/17 A2979 RMK AO2 T01720167
Loading
Personal Weather Stations






























Interactive Weather Map New forecast layout! Learn more

10-Day Weather Forecast

Advertisements
Track Severe Weather on mobile